createdAt,value
2023-05-20T00:01:03.875Z,11.07
2023-05-20T00:03:30.410Z,14.48
2023-05-20T00:05:56.848Z,15.07
2023-05-20T00:08:23.196Z,13.30
2023-05-20T00:10:49.568Z,12.52
2023-05-20T00:13:15.919Z,14.27
2023-05-20T00:15:42.293Z,16.15
2023-05-20T00:18:08.680Z,11.90
2023-05-20T00:20:35.232Z,12.50
2023-05-20T00:23:01.605Z,13.82
2023-05-20T00:25:27.997Z,12.80
2023-05-20T00:27:54.382Z,10.80
2023-05-20T00:30:20.726Z,13.15
2023-05-20T00:32:47.741Z,12.52
2023-05-20T00:35:14.111Z,13.32
2023-05-20T00:37:40.468Z,11.98
2023-05-20T00:40:07.643Z,12.45
2023-05-20T00:42:34.096Z,22.27
2023-05-20T00:45:00.606Z,12.95
2023-05-20T00:47:30.644Z,12.73
2023-05-20T00:49:57.611Z,14.00
2023-05-20T00:52:25.258Z,13.98
2023-05-20T00:54:52.452Z,14.05
2023-05-20T00:57:20.359Z,13.25
2023-05-20T00:59:46.887Z,13.57
2023-05-20T01:02:13.334Z,11.70
2023-05-20T01:04:39.885Z,15.40
2023-05-20T01:07:06.765Z,13.02
2023-05-20T01:09:33.453Z,12.98
2023-05-20T01:12:11.441Z,13.02
2023-05-20T01:14:46.882Z,13.07
2023-05-20T01:17:14.883Z,13.45
2023-05-20T01:19:42.843Z,12.98
2023-05-20T01:22:10.634Z,12.95
2023-05-20T01:24:37.047Z,12.80
2023-05-20T01:27:03.571Z,11.50
2023-05-20T01:29:29.973Z,15.82
2023-05-20T01:31:57.729Z,13.55
2023-05-20T01:34:25.102Z,11.57
2023-05-20T01:36:52.496Z,13.45
2023-05-20T01:39:19.758Z,12.75
2023-05-20T01:41:47.565Z,13.27
2023-05-20T01:44:13.945Z,13.60
2023-05-20T01:46:40.375Z,13.77
2023-05-20T01:49:06.810Z,11.95
2023-05-20T01:51:33.217Z,11.57
2023-05-20T01:53:59.657Z,14.20
2023-05-20T01:56:26.114Z,12.25
2023-05-20T01:58:52.474Z,14.43
2023-05-20T02:01:18.857Z,13.55
2023-05-20T02:03:45.273Z,11.93
2023-05-20T02:06:11.692Z,12.13
2023-05-20T02:08:38.110Z,10.90
2023-05-20T02:11:04.615Z,11.98
2023-05-20T02:13:30.963Z,12.05
2023-05-20T02:15:57.348Z,14.65
2023-05-20T02:18:23.709Z,16.00
2023-05-20T02:20:50.045Z,15.68
2023-05-20T02:23:16.380Z,14.32
2023-05-20T02:25:43.704Z,14.05
2023-05-20T02:28:10.194Z,15.13
2023-05-20T02:30:39.438Z,14.40
2023-05-20T02:33:05.867Z,12.23
2023-05-20T02:35:32.731Z,14.48
2023-05-20T02:37:59.190Z,12.52
2023-05-20T02:40:25.543Z,14.60
2023-05-20T02:42:51.942Z,17.65
2023-05-20T02:45:18.366Z,12.23
2023-05-20T02:47:44.757Z,12.88
2023-05-20T02:50:11.137Z,15.02
2023-05-20T02:52:37.488Z,14.82
2023-05-20T02:55:04.188Z,15.40
2023-05-20T02:57:30.537Z,15.65
2023-05-20T02:59:56.887Z,13.65
2023-05-20T03:02:23.367Z,12.23
2023-05-20T03:04:49.908Z,12.60
2023-05-20T03:07:16.343Z,16.25
2023-05-20T03:09:42.711Z,14.52
2023-05-20T03:12:09.086Z,14.38
2023-05-20T03:14:35.529Z,15.70
2023-05-20T03:17:01.960Z,14.90
2023-05-20T03:19:28.433Z,14.05
2023-05-20T03:21:54.874Z,12.60
2023-05-20T03:24:21.268Z,13.40
2023-05-20T03:26:47.762Z,17.92
2023-05-20T03:29:14.272Z,15.13
2023-05-20T03:31:40.633Z,13.05
2023-05-20T03:34:07.778Z,12.55
2023-05-20T03:36:34.141Z,12.32
2023-05-20T03:39:00.525Z,13.05
2023-05-20T03:41:26.909Z,15.50
2023-05-20T03:43:53.507Z,13.73
2023-05-20T03:46:19.966Z,13.48
2023-05-20T03:48:46.361Z,14.15
2023-05-20T03:51:12.725Z,13.63
2023-05-20T03:53:39.134Z,16.50
2023-05-20T03:56:05.568Z,12.50
2023-05-20T03:58:31.935Z,13.50
2023-05-20T04:00:58.507Z,15.77
2023-05-20T04:03:24.953Z,15.85
2023-05-20T04:05:51.318Z,11.23
2023-05-20T04:08:17.685Z,13.10
2023-05-20T04:10:44.442Z,13.30
2023-05-20T04:13:11.240Z,12.70
2023-05-20T04:15:38.318Z,14.85
2023-05-20T04:18:05.539Z,10.63
2023-05-20T04:20:32.092Z,11.05
2023-05-20T04:22:58.457Z,13.93
2023-05-20T04:25:25.002Z,13.63
2023-05-20T04:27:51.585Z,13.63
2023-05-20T04:30:17.929Z,13.20
2023-05-20T04:32:44.486Z,13.60
2023-05-20T04:35:10.886Z,13.00
2023-05-20T04:37:38.308Z,13.52
2023-05-20T04:40:05.766Z,11.68
2023-05-20T04:42:35.353Z,13.00
2023-05-20T04:45:01.726Z,11.23
2023-05-20T04:47:28.555Z,12.82
2023-05-20T04:49:56.284Z,12.93
2023-05-20T04:52:22.641Z,12.82
2023-05-20T04:54:49.052Z,13.18
2023-05-20T04:57:15.577Z,12.45
2023-05-20T04:59:41.934Z,13.93
2023-05-20T05:02:08.484Z,12.60
2023-05-20T05:04:34.913Z,13.70
2023-05-20T05:07:01.336Z,11.48
2023-05-20T05:09:27.699Z,11.18
2023-05-20T05:11:54.059Z,11.00
2023-05-20T05:14:20.430Z,11.15
2023-05-20T05:16:46.766Z,11.57
2023-05-20T05:19:13.170Z,11.05
2023-05-20T05:21:39.808Z,11.15
2023-05-20T05:24:06.651Z,10.00
2023-05-20T05:26:33.256Z,9.00
2023-05-20T05:28:59.709Z,11.48
2023-05-20T05:31:26.090Z,9.60
2023-05-20T05:33:52.641Z,10.10
2023-05-20T05:36:19.055Z,8.40
2023-05-20T05:38:45.402Z,8.13
2023-05-20T05:41:11.885Z,8.40
2023-05-20T05:43:38.281Z,6.95
2023-05-20T05:46:04.636Z,10.20
2023-05-20T05:48:30.966Z,8.38
2023-05-20T05:50:57.303Z,8.43
2023-05-20T05:53:23.748Z,8.50
2023-05-20T05:55:50.110Z,7.50
2023-05-20T05:58:16.457Z,6.75
2023-05-20T06:00:43.029Z,7.25
2023-05-20T06:03:09.502Z,9.10
2023-05-20T06:05:36.178Z,7.75
2023-05-20T06:08:03.035Z,6.25
2023-05-20T06:10:29.448Z,6.47
2023-05-20T06:12:55.859Z,7.20
2023-05-20T06:15:22.199Z,6.22
2023-05-20T06:17:48.689Z,7.25
2023-05-20T06:20:15.135Z,6.32
2023-05-20T06:22:41.519Z,7.07
2023-05-20T06:25:08.703Z,6.75
2023-05-20T06:27:35.068Z,5.82
2023-05-20T06:30:01.486Z,6.05
2023-05-20T06:32:27.899Z,6.93
2023-05-20T06:34:54.312Z,9.68
2023-05-20T06:37:20.659Z,8.02
2023-05-20T06:39:47.016Z,7.15
2023-05-20T06:42:13.428Z,6.55
2023-05-20T06:44:39.752Z,6.10
2023-05-20T06:47:06.145Z,6.82
2023-05-20T06:49:32.506Z,8.07
2023-05-20T06:51:58.840Z,7.35
2023-05-20T06:54:25.334Z,7.20
2023-05-20T06:56:51.685Z,6.93
2023-05-20T06:59:18.120Z,6.85
2023-05-20T07:01:44.581Z,6.65
2023-05-20T07:04:11.186Z,7.13
2023-05-20T07:06:37.624Z,7.28
2023-05-20T07:09:04.003Z,5.18
2023-05-20T07:11:30.347Z,6.13
2023-05-20T07:13:56.684Z,6.20
2023-05-20T07:16:23.136Z,5.47
2023-05-20T07:18:49.519Z,6.90
2023-05-20T07:21:15.862Z,6.80
2023-05-20T07:23:42.226Z,6.45
2023-05-20T07:26:08.575Z,7.47
2023-05-20T07:28:34.916Z,5.70
2023-05-20T07:31:01.301Z,5.20
2023-05-20T07:33:27.710Z,6.10
2023-05-20T07:35:54.075Z,6.65
2023-05-20T07:38:20.410Z,6.90
2023-05-20T07:40:46.744Z,6.68
2023-05-20T07:43:13.218Z,5.90
2023-05-20T07:45:39.681Z,7.03
2023-05-20T07:48:06.454Z,6.15
2023-05-20T07:50:33.475Z,7.75
2023-05-20T07:52:59.892Z,7.47
2023-05-20T07:55:26.272Z,7.45
2023-05-20T07:57:52.649Z,5.78
2023-05-20T08:00:19.208Z,5.78
2023-05-20T08:02:45.609Z,7.90
2023-05-20T08:05:12.037Z,5.88
2023-05-20T08:07:38.422Z,6.85
2023-05-20T08:10:05.333Z,5.50
2023-05-20T08:12:31.690Z,6.82
2023-05-20T08:14:58.052Z,5.70
2023-05-20T08:17:24.532Z,8.00
2023-05-20T08:19:50.927Z,6.18
2023-05-20T08:22:17.327Z,6.93
2023-05-20T08:24:43.700Z,4.85
2023-05-20T08:27:10.067Z,5.43
2023-05-20T08:29:36.521Z,8.13
2023-05-20T08:32:02.916Z,5.63
2023-05-20T08:34:29.360Z,5.75
2023-05-20T08:36:55.823Z,6.13
2023-05-20T08:39:22.190Z,6.35
2023-05-20T08:41:48.693Z,5.25
2023-05-20T08:44:17.097Z,6.50
2023-05-20T08:46:43.591Z,6.60
2023-05-20T08:49:10.116Z,5.63
2023-05-20T08:51:38.230Z,5.35
2023-05-20T08:54:04.745Z,10.00
2023-05-20T08:56:31.812Z,5.72
2023-05-20T08:58:58.218Z,8.52
2023-05-20T09:01:25.207Z,6.72
2023-05-20T09:03:51.807Z,5.60
2023-05-20T09:06:18.636Z,7.13
2023-05-20T09:08:45.007Z,7.80
2023-05-20T09:11:12.077Z,6.32
2023-05-20T09:13:38.425Z,5.72
2023-05-20T09:16:05.328Z,5.00
2023-05-20T09:18:31.766Z,5.93
2023-05-20T09:20:58.237Z,7.25
2023-05-20T09:23:24.630Z,3.75
2023-05-20T09:25:52.061Z,4.85
2023-05-20T09:28:23.639Z,5.45
2023-05-20T09:30:49.991Z,5.97
2023-05-20T09:33:16.477Z,4.07
2023-05-20T09:35:42.838Z,4.97
2023-05-20T09:38:10.417Z,5.13
2023-05-20T09:40:36.808Z,4.57
2023-05-20T09:43:07.152Z,4.20
2023-05-20T09:45:34.006Z,4.55
2023-05-20T09:48:02.192Z,5.57
2023-05-20T09:50:29.374Z,6.78
2023-05-20T09:52:56.156Z,7.32
2023-05-20T09:55:24.861Z,4.85
2023-05-20T09:57:51.846Z,7.07
2023-05-20T10:00:18.648Z,6.93
2023-05-20T10:02:51.849Z,4.53
2023-05-20T10:05:22.458Z,5.68
2023-05-20T10:08:17.272Z,4.47
2023-05-20T10:10:55.294Z,5.10
2023-05-20T10:13:36.657Z,5.88
2023-05-20T10:16:17.283Z,6.78
2023-05-20T10:19:05.065Z,7.32
2023-05-20T10:21:33.204Z,4.57
2023-05-20T10:24:07.276Z,6.75
2023-05-20T10:26:41.630Z,5.75
2023-05-20T10:29:15.436Z,6.22
2023-05-20T10:31:48.377Z,4.35
2023-05-20T10:34:19.846Z,6.00
2023-05-20T10:36:58.795Z,4.97
2023-05-20T10:39:30.123Z,5.57
2023-05-20T10:42:09.767Z,6.20
2023-05-20T10:44:47.245Z,7.18
2023-05-20T10:49:46.399Z,7.93
2023-05-20T10:52:17.490Z,5.18
2023-05-20T10:54:55.801Z,5.75
2023-05-20T10:57:22.715Z,5.82
2023-05-20T10:59:50.363Z,4.55
2023-05-20T11:02:17.584Z,4.70
2023-05-20T11:04:44.538Z,4.88
2023-05-20T11:07:10.926Z,3.30
2023-05-20T11:09:37.657Z,5.72
2023-05-20T11:12:04.394Z,5.22
2023-05-20T11:14:31.052Z,2.97
2023-05-20T11:16:58.803Z,5.88
2023-05-20T11:19:28.403Z,9.27
2023-05-20T11:21:55.012Z,4.10
2023-05-20T11:24:26.421Z,5.53
2023-05-20T11:26:53.889Z,6.38
2023-05-20T11:29:20.505Z,4.40
2023-05-20T11:31:49.495Z,5.65
2023-05-20T11:34:15.952Z,4.93
2023-05-20T11:36:43.053Z,6.03
2023-05-20T11:39:12.935Z,4.30
2023-05-20T11:41:39.533Z,4.57
2023-05-20T11:44:10.551Z,4.80
2023-05-20T11:46:41.596Z,5.07
2023-05-20T11:49:08.083Z,3.83
2023-05-20T11:51:34.648Z,5.72
2023-05-20T11:54:05.240Z,4.95
2023-05-20T11:56:33.883Z,5.53
2023-05-20T11:59:01.306Z,6.63
2023-05-20T12:01:30.868Z,3.30
2023-05-20T12:03:57.428Z,8.68
2023-05-20T12:06:23.961Z,4.28
2023-05-20T12:08:50.326Z,4.47
2023-05-20T12:11:16.864Z,5.85
2023-05-20T12:13:43.214Z,7.95
2023-05-20T12:16:09.622Z,5.93
2023-05-20T12:18:36.031Z,4.35
2023-05-20T12:21:02.388Z,7.70
2023-05-20T12:23:28.737Z,5.68
2023-05-20T12:25:55.133Z,4.57
2023-05-20T12:28:21.631Z,4.75
2023-05-20T12:30:48.017Z,4.95
2023-05-20T12:33:14.474Z,4.38
2023-05-20T12:35:42.463Z,4.50
2023-05-20T12:38:09.393Z,4.93
2023-05-20T12:40:36.504Z,3.53
2023-05-20T12:43:04.409Z,3.92
2023-05-20T12:45:31.163Z,4.95
2023-05-20T12:47:57.935Z,4.43
2023-05-20T12:50:24.919Z,4.03
2023-05-20T12:52:51.295Z,4.82
2023-05-20T12:55:17.789Z,6.68
2023-05-20T12:57:45.337Z,3.17
2023-05-20T13:00:12.813Z,8.85
2023-05-20T13:02:40.258Z,5.22
2023-05-20T13:05:07.023Z,4.30
2023-05-20T13:07:33.843Z,5.28
2023-05-20T13:10:00.447Z,4.55
2023-05-20T13:12:26.915Z,4.85
2023-05-20T13:14:53.323Z,4.82
2023-05-20T13:17:19.779Z,3.08
2023-05-20T13:19:46.257Z,4.88
2023-05-20T13:22:12.645Z,3.90
2023-05-20T13:24:39.050Z,4.90
2023-05-20T13:27:05.691Z,5.15
2023-05-20T13:29:32.081Z,5.30
2023-05-20T13:32:00.986Z,4.75
2023-05-20T13:34:28.226Z,2.83
2023-05-20T13:36:54.633Z,4.68
2023-05-20T13:39:21.014Z,4.60
2023-05-20T13:41:47.419Z,4.57
2023-05-20T13:44:13.812Z,4.32
2023-05-20T13:46:40.246Z,4.90
2023-05-20T13:49:06.686Z,5.15
2023-05-20T13:51:33.144Z,4.95
2023-05-20T13:53:59.471Z,3.53
2023-05-20T13:56:25.841Z,5.25
2023-05-20T13:58:52.202Z,4.50
2023-05-20T14:01:18.701Z,3.83
2023-05-20T14:03:45.527Z,5.18
2023-05-20T14:06:12.125Z,3.50
2023-05-20T14:08:38.510Z,3.78
2023-05-20T14:11:04.899Z,5.15
2023-05-20T14:13:31.299Z,4.93
2023-05-20T14:15:57.887Z,4.53
2023-05-20T14:18:24.302Z,4.18
2023-05-20T14:20:50.658Z,3.03
2023-05-20T14:23:17.081Z,5.13
2023-05-20T14:25:43.449Z,3.25
2023-05-20T14:28:09.855Z,3.13
2023-05-20T14:30:36.530Z,4.55
2023-05-20T14:33:03.200Z,4.18
2023-05-20T14:35:29.615Z,4.78
2023-05-20T14:37:55.952Z,5.05
2023-05-20T14:40:22.442Z,3.72
2023-05-20T14:42:48.801Z,3.33
2023-05-20T14:45:15.287Z,4.72
2023-05-20T14:47:41.663Z,3.80
2023-05-20T14:50:08.361Z,4.50
2023-05-20T14:52:34.708Z,5.15
2023-05-20T14:55:01.115Z,3.97
2023-05-20T14:57:27.521Z,4.53
2023-05-20T14:59:53.970Z,4.03
2023-05-20T15:02:20.440Z,5.70
2023-05-20T15:04:46.971Z,3.53
2023-05-20T15:07:16.905Z,2.88
2023-05-20T15:09:43.421Z,3.63
2023-05-20T15:12:10.858Z,2.30
2023-05-20T15:14:37.468Z,3.97
2023-05-20T15:17:04.508Z,3.30
2023-05-20T15:19:32.503Z,4.50
2023-05-20T15:21:59.792Z,4.85
2023-05-20T15:24:26.182Z,3.90
2023-05-20T15:26:53.766Z,3.78
2023-05-20T15:29:20.312Z,4.55
2023-05-20T15:31:46.689Z,2.67
2023-05-20T15:34:13.111Z,2.20
2023-05-20T15:36:39.506Z,6.15
2023-05-20T15:39:05.967Z,4.90
2023-05-20T15:41:32.680Z,8.27
2023-05-20T15:43:59.150Z,3.35
2023-05-20T15:46:26.329Z,5.88
2023-05-20T15:48:52.846Z,9.00
2023-05-20T15:51:19.252Z,6.03
2023-05-20T15:53:45.584Z,3.58
2023-05-20T15:56:12.715Z,4.47
2023-05-20T15:58:39.216Z,4.57
2023-05-20T16:01:05.763Z,3.53
2023-05-20T16:03:33.014Z,5.60
2023-05-20T16:05:59.582Z,5.85
2023-05-20T16:08:27.126Z,4.93
2023-05-20T16:10:53.455Z,4.53
2023-05-20T16:13:19.788Z,6.20
2023-05-20T16:15:46.780Z,8.23
2023-05-20T16:18:13.191Z,3.88
2023-05-20T16:20:39.565Z,4.55
2023-05-20T16:23:05.973Z,3.50
2023-05-20T16:25:32.363Z,3.83
2023-05-20T16:27:58.729Z,4.78
2023-05-20T16:30:25.280Z,4.57
2023-05-20T16:32:51.653Z,5.80
2023-05-20T16:35:18.066Z,6.60
2023-05-20T16:37:44.486Z,4.43
2023-05-20T16:40:11.227Z,4.35
2023-05-20T16:42:37.580Z,7.18
2023-05-20T16:45:04.359Z,4.65
2023-05-20T16:47:30.758Z,5.53
2023-05-20T16:49:57.148Z,7.97
2023-05-20T16:52:23.672Z,4.03
2023-05-20T16:54:50.091Z,4.95
2023-05-20T16:57:16.454Z,3.65
2023-05-20T16:59:42.806Z,5.45
2023-05-20T17:02:09.164Z,5.25
2023-05-20T17:04:35.707Z,5.97
2023-05-20T17:07:02.642Z,4.38
2023-05-20T17:09:29.212Z,5.22
2023-05-20T17:11:55.607Z,5.65
2023-05-20T17:14:21.981Z,3.90
2023-05-20T17:16:48.426Z,4.35
2023-05-20T17:19:15.130Z,4.30
2023-05-20T17:21:41.542Z,3.78
2023-05-20T17:24:07.874Z,5.03
2023-05-20T17:26:34.271Z,5.22
2023-05-20T17:29:00.611Z,6.13
2023-05-20T17:31:26.967Z,4.40
2023-05-20T17:33:53.395Z,6.88
2023-05-20T17:36:19.939Z,4.60
2023-05-20T17:38:46.309Z,4.78
2023-05-20T17:41:12.661Z,4.50
2023-05-20T17:43:39.064Z,4.82
2023-05-20T17:46:05.469Z,4.72
2023-05-20T17:48:31.946Z,3.65
2023-05-20T17:50:58.648Z,4.95
2023-05-20T17:53:25.026Z,4.85
2023-05-20T17:55:51.428Z,4.53
2023-05-20T17:58:17.767Z,4.57
2023-05-20T18:00:44.181Z,4.82
2023-05-20T18:03:10.789Z,4.97
2023-05-20T18:05:37.250Z,4.63
2023-05-20T18:08:03.752Z,5.90
2023-05-20T18:10:30.133Z,5.45
2023-05-20T18:12:56.500Z,6.05
2023-05-20T18:15:22.853Z,5.38
2023-05-20T18:17:49.289Z,5.53
2023-05-20T18:20:15.715Z,6.03
2023-05-20T18:22:42.099Z,5.85
2023-05-20T18:25:09.130Z,5.25
2023-05-20T18:27:35.508Z,6.28
2023-05-20T18:30:01.913Z,5.68
2023-05-20T18:32:28.295Z,4.65
2023-05-20T18:34:54.683Z,3.33
2023-05-20T18:37:21.187Z,4.35
2023-05-20T18:39:47.560Z,5.10
2023-05-20T18:42:13.958Z,4.80
2023-05-20T18:44:40.878Z,3.95
2023-05-20T18:47:07.631Z,5.07
2023-05-20T18:49:33.986Z,5.95
2023-05-20T18:52:00.313Z,7.93
2023-05-20T18:54:26.681Z,6.20
2023-05-20T18:56:53.204Z,4.90
2023-05-20T18:59:19.576Z,6.35
2023-05-20T19:01:45.999Z,5.70
2023-05-20T19:04:12.362Z,4.65
2023-05-20T19:06:38.750Z,5.13
2023-05-20T19:09:05.138Z,5.55
2023-05-20T19:11:32.222Z,6.35
2023-05-20T19:13:59.026Z,6.80
2023-05-20T19:16:26.202Z,6.28
2023-05-20T19:18:52.756Z,5.70
2023-05-20T19:21:19.128Z,5.53
2023-05-20T19:23:45.494Z,6.82
2023-05-20T19:26:11.938Z,7.63
2023-05-20T19:28:38.329Z,6.80
2023-05-20T19:31:04.722Z,5.70
2023-05-20T19:33:31.170Z,7.53
2023-05-20T19:35:57.612Z,8.35
2023-05-20T19:38:23.966Z,6.70
2023-05-20T19:40:50.306Z,8.00
2023-05-20T19:43:16.709Z,5.03
2023-05-20T19:45:43.135Z,4.60
2023-05-20T19:48:09.782Z,6.53
2023-05-20T19:50:36.221Z,6.90
2023-05-20T19:53:02.585Z,5.30
2023-05-20T19:55:29.551Z,5.43
2023-05-20T19:57:55.889Z,6.45
2023-05-20T20:00:22.277Z,5.07
2023-05-20T20:02:48.840Z,5.30
2023-05-20T20:05:15.433Z,4.97
2023-05-20T20:07:41.826Z,6.05
2023-05-20T20:10:09.542Z,5.88
2023-05-20T20:12:35.906Z,6.78
2023-05-20T20:15:03.616Z,5.85
2023-05-20T20:17:30.001Z,6.57
2023-05-20T20:19:56.426Z,7.28
2023-05-20T20:22:22.854Z,7.70
2023-05-20T20:24:49.199Z,7.03
2023-05-20T20:27:15.682Z,6.75
2023-05-20T20:29:42.131Z,6.82
2023-05-20T20:32:08.802Z,10.20
2023-05-20T20:34:35.205Z,6.47
2023-05-20T20:37:01.680Z,6.38
2023-05-20T20:39:28.365Z,5.90
2023-05-20T20:41:54.755Z,7.90
2023-05-20T20:44:21.189Z,6.80
2023-05-20T20:46:48.337Z,7.40
2023-05-20T20:49:14.752Z,7.30
2023-05-20T20:51:41.134Z,8.57
2023-05-20T20:54:15.935Z,8.07
2023-05-20T20:56:42.493Z,6.28
2023-05-20T20:59:08.897Z,6.30
2023-05-20T21:01:35.237Z,6.60
2023-05-20T21:04:05.071Z,6.70
2023-05-20T21:06:31.876Z,6.28
2023-05-20T21:08:58.286Z,8.15
2023-05-20T21:11:24.793Z,8.23
2023-05-20T21:13:51.248Z,7.65
2023-05-20T21:16:17.616Z,8.90
2023-05-20T21:18:44.017Z,6.93
2023-05-20T21:21:10.491Z,10.48
2023-05-20T21:23:36.835Z,7.85
2023-05-20T21:26:03.279Z,7.07
2023-05-20T21:28:30.304Z,7.45
2023-05-20T21:30:56.707Z,5.88
2023-05-20T21:33:23.141Z,8.60
2023-05-20T21:35:49.584Z,6.22
2023-05-20T21:38:15.943Z,6.75
2023-05-20T21:40:42.365Z,7.13
2023-05-20T21:43:08.736Z,5.85
2023-05-20T21:45:35.291Z,7.18
2023-05-20T21:48:01.919Z,8.13
2023-05-20T21:50:28.326Z,5.65
2023-05-20T21:52:54.683Z,8.00
2023-05-20T21:55:21.082Z,6.32
2023-05-20T21:57:47.447Z,6.68
2023-05-20T22:00:14.055Z,6.80
2023-05-20T22:02:41.065Z,6.18
2023-05-20T22:05:07.722Z,7.28
2023-05-20T22:07:34.056Z,10.65
2023-05-20T22:10:00.632Z,7.00
2023-05-20T22:12:27.065Z,6.50
2023-05-20T22:14:53.404Z,6.90
2023-05-20T22:17:19.800Z,7.68
2023-05-20T22:19:46.174Z,7.13
2023-05-20T22:22:12.518Z,7.57
2023-05-20T22:24:40.009Z,6.93
2023-05-20T22:27:06.460Z,8.02
2023-05-20T22:29:32.857Z,7.72
2023-05-20T22:31:59.452Z,7.18
2023-05-20T22:34:26.050Z,7.40
2023-05-20T22:36:52.526Z,7.93
2023-05-20T22:39:18.868Z,8.40
2023-05-20T22:41:45.318Z,6.93
2023-05-20T22:44:11.693Z,8.57
2023-05-20T22:46:38.161Z,8.00
2023-05-20T22:49:04.550Z,7.78
2023-05-20T22:51:31.000Z,7.57
2023-05-20T22:53:57.322Z,8.45
2023-05-20T22:56:23.638Z,8.77
2023-05-20T22:58:49.991Z,6.75
2023-05-20T23:01:16.407Z,8.48
2023-05-20T23:03:42.821Z,7.57
2023-05-20T23:06:09.167Z,7.65
2023-05-20T23:08:35.548Z,7.22
2023-05-20T23:11:01.986Z,8.15
2023-05-20T23:13:28.395Z,8.18
2023-05-20T23:15:54.795Z,8.88
2023-05-20T23:18:21.180Z,7.82
2023-05-20T23:20:47.573Z,8.40
2023-05-20T23:23:14.039Z,10.15
2023-05-20T23:25:40.466Z,7.53
2023-05-20T23:28:07.101Z,8.70
2023-05-20T23:30:34.965Z,9.55
2023-05-20T23:33:01.532Z,7.78
2023-05-20T23:35:28.016Z,8.35
2023-05-20T23:37:54.434Z,9.32
2023-05-20T23:40:20.902Z,8.43
2023-05-20T23:42:47.270Z,9.07
2023-05-20T23:45:13.607Z,8.77
2023-05-20T23:47:40.071Z,8.27
2023-05-20T23:50:06.859Z,9.00
2023-05-20T23:52:33.288Z,11.65
2023-05-20T23:54:59.636Z,9.80
2023-05-20T23:57:25.992Z,9.43
2023-05-20T23:59:52.560Z,8.52
